CPA459 RCKH-VHHH
Flight info
| Callsign | CPA459 |
|---|---|
| Flight time | 1h 4m |
| Altitude | 32000 |
| Route | PARAS1B PARAS T7 WP521 G581 ELATO V522 ABBEY |
| Aircraft | A359/H-SDE2E3GHIJ3J4J5LM1ORWXY/LB1D1 |
Departure
| Time | 2026-04-30 07:47 |
|---|---|
| Airport | Kaohsiung International Airport (RCKH) |
Arrival
| Time | 2026-04-30 08:51 |
|---|---|
| Airport | Hong Kong International Airport (VHHH) |
| Time | Latitude | Longitude | Altitude | Speed | Heading |
|---|---|---|---|---|---|
| 2026-04-30 07:47 | 22.49062 | 120.14502 | 8229 ft | 267 kts | 228° |
| 2026-04-30 07:47 | 22.47776 | 120.13040 | 9049 ft | 269 kts | 229° |
| 2026-04-30 07:47 | 22.46486 | 120.11576 | 9874 ft | 270 kts | 229° |
| 2026-04-30 07:48 | 22.45172 | 120.10082 | 10419 ft | 281 kts | 229° |
| 2026-04-30 07:48 | 22.43779 | 120.08498 | 10748 ft | 299 kts | 228° |
| 2026-04-30 07:48 | 22.42321 | 120.06805 | 11033 ft | 316 kts | 231° |
| 2026-04-30 07:48 | 22.40949 | 120.04873 | 11343 ft | 331 kts | 236° |
| 2026-04-30 07:49 | 22.39607 | 120.02820 | 11824 ft | 338 kts | 236° |
| 2026-04-30 07:49 | 22.38250 | 120.00730 | 12441 ft | 341 kts | 236° |
| 2026-04-30 07:49 | 22.36882 | 119.98627 | 13046 ft | 344 kts | 236° |
| 2026-04-30 07:49 | 22.35499 | 119.96506 | 13647 ft | 347 kts | 236° |
| 2026-04-30 07:50 | 22.34100 | 119.94365 | 14186 ft | 350 kts | 236° |
| 2026-04-30 07:50 | 22.32693 | 119.92212 | 14693 ft | 353 kts | 236° |
| 2026-04-30 07:50 | 22.31269 | 119.90036 | 15188 ft | 356 kts | 236° |
| 2026-04-30 07:50 | 22.29849 | 119.87867 | 15677 ft | 359 kts | 236° |
| 2026-04-30 07:51 | 22.28383 | 119.85629 | 16175 ft | 362 kts | 236° |
| 2026-04-30 07:51 | 22.26924 | 119.83403 | 16659 ft | 365 kts | 236° |
| 2026-04-30 07:51 | 22.25468 | 119.81182 | 17123 ft | 369 kts | 236° |
| 2026-04-30 07:51 | 22.23981 | 119.78914 | 17596 ft | 372 kts | 236° |
| 2026-04-30 07:52 | 22.22480 | 119.76624 | 18052 ft | 375 kts | 236° |
| 2026-04-30 07:52 | 22.21125 | 119.74207 | 18480 ft | 377 kts | 246° |
| 2026-04-30 07:52 | 22.20221 | 119.71553 | 18933 ft | 377 kts | 253° |
| 2026-04-30 07:52 | 22.19533 | 119.68824 | 19377 ft | 379 kts | 256° |
| 2026-04-30 07:53 | 22.18947 | 119.66045 | 19840 ft | 380 kts | 258° |
| 2026-04-30 07:53 | 22.18395 | 119.63241 | 20302 ft | 382 kts | 258° |
| 2026-04-30 07:53 | 22.17843 | 119.60434 | 20781 ft | 384 kts | 258° |
| 2026-04-30 07:53 | 22.17274 | 119.57619 | 21237 ft | 386 kts | 257° |
| 2026-04-30 07:54 | 22.16686 | 119.54787 | 21698 ft | 388 kts | 257° |
| 2026-04-30 07:54 | 22.16382 | 119.52985 | 21979 ft | 389 kts | 261° |
| 2026-04-30 07:54 | 22.16144 | 119.50127 | 22388 ft | 392 kts | 265° |
| 2026-04-30 07:54 | 22.15996 | 119.47176 | 22859 ft | 395 kts | 266° |
| 2026-04-30 07:55 | 22.15892 | 119.44211 | 23286 ft | 397 kts | 266° |
| 2026-04-30 07:55 | 22.15811 | 119.41220 | 23692 ft | 399 kts | 267° |
| 2026-04-30 07:55 | 22.15739 | 119.38212 | 24032 ft | 402 kts | 267° |
| 2026-04-30 07:55 | 22.15668 | 119.35225 | 24369 ft | 406 kts | 267° |
| 2026-04-30 07:56 | 22.15593 | 119.32168 | 24741 ft | 408 kts | 267° |
| 2026-04-30 07:56 | 22.15513 | 119.29095 | 25143 ft | 411 kts | 267° |
| 2026-04-30 07:56 | 22.15430 | 119.25997 | 25501 ft | 415 kts | 267° |
| 2026-04-30 07:56 | 22.15344 | 119.22876 | 25883 ft | 418 kts | 266° |
| 2026-04-30 07:57 | 22.15255 | 119.19726 | 26281 ft | 421 kts | 266° |
| 2026-04-30 07:57 | 22.15165 | 119.16553 | 26680 ft | 424 kts | 266° |
| 2026-04-30 07:57 | 22.15073 | 119.13362 | 27073 ft | 427 kts | 266° |
| 2026-04-30 07:57 | 22.15015 | 119.11241 | 27333 ft | 429 kts | 267° |
| 2026-04-30 07:58 | 22.15138 | 119.07999 | 27720 ft | 434 kts | 274° |
| 2026-04-30 07:58 | 22.15447 | 119.04756 | 28109 ft | 437 kts | 275° |
| 2026-04-30 07:58 | 22.15812 | 119.01485 | 28494 ft | 440 kts | 275° |
| 2026-04-30 07:58 | 22.16206 | 118.98205 | 28876 ft | 443 kts | 276° |
| 2026-04-30 07:59 | 22.16618 | 118.94899 | 29237 ft | 446 kts | 276° |
| 2026-04-30 07:59 | 22.17030 | 118.91567 | 29619 ft | 449 kts | 276° |
| 2026-04-30 07:59 | 22.17439 | 118.88220 | 29995 ft | 452 kts | 276° |
| 2026-04-30 08:00 | 22.18249 | 118.81463 | 30587 ft | 457 kts | 276° |
| 2026-04-30 08:00 | 22.18654 | 118.78054 | 30899 ft | 459 kts | 276° |
| 2026-04-30 08:00 | 22.19052 | 118.74692 | 31178 ft | 461 kts | 276° |
| 2026-04-30 08:00 | 22.19426 | 118.71523 | 31451 ft | 463 kts | 276° |
| 2026-04-30 08:01 | 22.19835 | 118.68062 | 31735 ft | 465 kts | 276° |
| 2026-04-30 08:01 | 22.20238 | 118.64644 | 31941 ft | 466 kts | 276° |
| 2026-04-30 08:01 | 22.20640 | 118.61241 | 31974 ft | 450 kts | 276° |
| 2026-04-30 08:01 | 22.21017 | 118.58048 | 31972 ft | 438 kts | 276° |
| 2026-04-30 08:02 | 22.21791 | 118.51448 | 31982 ft | 452 kts | 276° |
| 2026-04-30 08:02 | 22.22190 | 118.48051 | 31982 ft | 461 kts | 276° |
| 2026-04-30 08:03 | 22.22999 | 118.41086 | 31980 ft | 472 kts | 276° |
| 2026-04-30 08:03 | 22.23815 | 118.34059 | 31989 ft | 471 kts | 276° |
| 2026-04-30 08:04 | 22.24627 | 118.27055 | 31981 ft | 470 kts | 276° |
| 2026-04-30 08:04 | 22.25435 | 118.20053 | 31985 ft | 470 kts | 276° |
| 2026-04-30 08:05 | 22.26239 | 118.13060 | 31988 ft | 470 kts | 276° |
| 2026-04-30 08:05 | 22.27021 | 118.06099 | 31995 ft | 469 kts | 275° |
| 2026-04-30 08:06 | 22.27784 | 117.99071 | 31997 ft | 468 kts | 275° |
| 2026-04-30 08:06 | 22.28565 | 117.92149 | 31998 ft | 467 kts | 275° |
| 2026-04-30 08:07 | 22.29363 | 117.85191 | 31994 ft | 467 kts | 275° |
| 2026-04-30 08:07 | 22.30159 | 117.78224 | 31990 ft | 467 kts | 275° |
| 2026-04-30 08:08 | 22.30949 | 117.71259 | 31995 ft | 467 kts | 275° |
| 2026-04-30 08:08 | 22.31734 | 117.64293 | 32004 ft | 467 kts | 275° |
| 2026-04-30 08:09 | 22.32518 | 117.57319 | 31993 ft | 467 kts | 275° |
| 2026-04-30 08:09 | 22.33217 | 117.50345 | 32003 ft | 466 kts | 271° |
| 2026-04-30 08:10 | 22.33243 | 117.43394 | 32010 ft | 465 kts | 268° |
| 2026-04-30 08:10 | 22.33126 | 117.36434 | 32006 ft | 463 kts | 268° |
| 2026-04-30 08:11 | 22.32981 | 117.29462 | 32004 ft | 463 kts | 268° |
| 2026-04-30 08:11 | 22.32838 | 117.22505 | 31996 ft | 463 kts | 268° |
| 2026-04-30 08:12 | 22.32701 | 117.15552 | 32002 ft | 463 kts | 268° |
| 2026-04-30 08:12 | 22.32565 | 117.08598 | 32008 ft | 464 kts | 268° |
| 2026-04-30 08:13 | 22.32427 | 117.01605 | 32007 ft | 466 kts | 268° |
| 2026-04-30 08:13 | 22.32286 | 116.94601 | 32016 ft | 467 kts | 268° |
| 2026-04-30 08:14 | 22.32141 | 116.87636 | 32007 ft | 466 kts | 268° |
| 2026-04-30 08:14 | 22.31989 | 116.80628 | 31999 ft | 467 kts | 268° |
| 2026-04-30 08:15 | 22.31837 | 116.73613 | 32001 ft | 467 kts | 268° |
| 2026-04-30 08:15 | 22.31682 | 116.66590 | 32013 ft | 467 kts | 268° |
| 2026-04-30 08:16 | 22.31525 | 116.59581 | 32014 ft | 467 kts | 268° |
| 2026-04-30 08:16 | 22.31365 | 116.52569 | 32006 ft | 467 kts | 268° |
| 2026-04-30 08:17 | 22.31202 | 116.45549 | 32010 ft | 467 kts | 268° |
| 2026-04-30 08:17 | 22.31036 | 116.38525 | 32006 ft | 468 kts | 268° |
| 2026-04-30 08:18 | 22.30867 | 116.31553 | 32016 ft | 467 kts | 268° |
| 2026-04-30 08:18 | 22.30695 | 116.24529 | 32024 ft | 467 kts | 268° |
| 2026-04-30 08:19 | 22.30520 | 116.17516 | 32014 ft | 467 kts | 268° |
| 2026-04-30 08:19 | 22.30341 | 116.10497 | 32019 ft | 467 kts | 268° |
| 2026-04-30 08:20 | 22.30160 | 116.03474 | 32011 ft | 467 kts | 268° |
| 2026-04-30 08:20 | 22.30068 | 115.99971 | 31774 ft | 467 kts | 268° |
| 2026-04-30 08:20 | 22.29975 | 115.96459 | 31552 ft | 466 kts | 268° |
| 2026-04-30 08:20 | 22.29884 | 115.92995 | 31207 ft | 458 kts | 268° |
| 2026-04-30 08:21 | 22.29793 | 115.89616 | 30627 ft | 455 kts | 268° |
| 2026-04-30 08:21 | 22.29701 | 115.86206 | 30048 ft | 453 kts | 268° |
| 2026-04-30 08:21 | 22.29611 | 115.82815 | 29402 ft | 450 kts | 268° |
| 2026-04-30 08:21 | 22.29524 | 115.79454 | 28853 ft | 445 kts | 268° |
| 2026-04-30 08:22 | 22.29439 | 115.76124 | 28297 ft | 441 kts | 268° |
| 2026-04-30 08:22 | 22.29355 | 115.72830 | 27742 ft | 438 kts | 268° |
| 2026-04-30 08:22 | 22.29269 | 115.69551 | 27196 ft | 434 kts | 268° |
| 2026-04-30 08:22 | 22.29185 | 115.66303 | 26635 ft | 431 kts | 268° |
| 2026-04-30 08:23 | 22.29100 | 115.63083 | 26103 ft | 428 kts | 268° |
| 2026-04-30 08:23 | 22.29012 | 115.59882 | 25558 ft | 425 kts | 268° |
| 2026-04-30 08:23 | 22.28923 | 115.56705 | 25016 ft | 422 kts | 268° |
| 2026-04-30 08:23 | 22.28835 | 115.53550 | 24465 ft | 419 kts | 268° |
| 2026-04-30 08:24 | 22.28747 | 115.50406 | 23932 ft | 417 kts | 268° |
| 2026-04-30 08:24 | 22.28659 | 115.47278 | 23345 ft | 415 kts | 268° |
| 2026-04-30 08:24 | 22.28571 | 115.44176 | 22746 ft | 412 kts | 268° |
| 2026-04-30 08:24 | 22.28483 | 115.41101 | 22203 ft | 407 kts | 268° |
| 2026-04-30 08:25 | 22.28395 | 115.38056 | 21654 ft | 403 kts | 268° |
| 2026-04-30 08:25 | 22.28308 | 115.35044 | 21110 ft | 400 kts | 268° |
| 2026-04-30 08:25 | 22.28221 | 115.32056 | 20560 ft | 396 kts | 268° |
| 2026-04-30 08:25 | 22.28132 | 115.29103 | 20025 ft | 393 kts | 268° |
| 2026-04-30 08:26 | 22.28042 | 115.26164 | 19480 ft | 390 kts | 268° |
| 2026-04-30 08:26 | 22.27951 | 115.23282 | 18941 ft | 388 kts | 268° |
| 2026-04-30 08:26 | 22.27859 | 115.20382 | 18390 ft | 385 kts | 268° |
| 2026-04-30 08:26 | 22.27768 | 115.17496 | 17776 ft | 383 kts | 268° |
| 2026-04-30 08:27 | 22.27678 | 115.14634 | 17217 ft | 379 kts | 268° |
| 2026-04-30 08:27 | 22.27588 | 115.11804 | 16671 ft | 375 kts | 268° |
| 2026-04-30 08:27 | 22.27500 | 115.08999 | 16129 ft | 372 kts | 268° |
| 2026-04-30 08:27 | 22.27411 | 115.06224 | 15597 ft | 368 kts | 268° |
| 2026-04-30 08:28 | 22.27323 | 115.03467 | 15052 ft | 365 kts | 268° |
| 2026-04-30 08:28 | 22.27237 | 115.00740 | 14521 ft | 362 kts | 268° |
| 2026-04-30 08:28 | 22.27152 | 114.98038 | 13983 ft | 359 kts | 268° |
| 2026-04-30 08:28 | 22.27067 | 114.95355 | 13415 ft | 356 kts | 268° |
| 2026-04-30 08:29 | 22.26981 | 114.92695 | 12884 ft | 352 kts | 268° |
| 2026-04-30 08:29 | 22.26894 | 114.90066 | 12356 ft | 348 kts | 268° |
| 2026-04-30 08:29 | 22.26810 | 114.87496 | 12130 ft | 336 kts | 268° |
| 2026-04-30 08:29 | 22.26731 | 114.85065 | 11997 ft | 321 kts | 268° |
| 2026-04-30 08:30 | 22.26653 | 114.82708 | 11782 ft | 311 kts | 268° |
| 2026-04-30 08:30 | 22.26534 | 114.80389 | 11372 ft | 308 kts | 263° |
| 2026-04-30 08:30 | 22.25968 | 114.78171 | 10975 ft | 307 kts | 245° |
| 2026-04-30 08:30 | 22.24730 | 114.76295 | 10845 ft | 312 kts | 229° |
| 2026-04-30 08:31 | 22.23169 | 114.74629 | 10683 ft | 317 kts | 226° |
| 2026-04-30 08:31 | 22.21566 | 114.73002 | 10536 ft | 316 kts | 226° |
| 2026-04-30 08:31 | 22.19971 | 114.71381 | 10389 ft | 310 kts | 226° |
| 2026-04-30 08:31 | 22.18436 | 114.69818 | 10238 ft | 298 kts | 226° |
| 2026-04-30 08:32 | 22.16964 | 114.68314 | 10079 ft | 286 kts | 226° |
| 2026-04-30 08:32 | 22.15548 | 114.66864 | 9939 ft | 277 kts | 226° |
| 2026-04-30 08:32 | 22.14152 | 114.65431 | 9801 ft | 277 kts | 226° |
| 2026-04-30 08:32 | 22.12754 | 114.63996 | 9651 ft | 278 kts | 226° |
| 2026-04-30 08:33 | 22.11351 | 114.62556 | 9516 ft | 277 kts | 226° |
| 2026-04-30 08:33 | 22.09973 | 114.61141 | 9366 ft | 277 kts | 226° |
| 2026-04-30 08:33 | 22.08578 | 114.59711 | 9247 ft | 276 kts | 226° |
| 2026-04-30 08:33 | 22.07186 | 114.58283 | 9111 ft | 276 kts | 226° |
| 2026-04-30 08:34 | 22.05797 | 114.56859 | 8976 ft | 275 kts | 226° |
| 2026-04-30 08:34 | 22.04410 | 114.55439 | 8842 ft | 275 kts | 226° |
| 2026-04-30 08:34 | 22.03167 | 114.53890 | 8685 ft | 272 kts | 240° |
| 2026-04-30 08:34 | 22.02538 | 114.51994 | 8566 ft | 269 kts | 263° |
| 2026-04-30 08:35 | 22.02581 | 114.49989 | 8430 ft | 269 kts | 275° |
| 2026-04-30 08:35 | 22.02814 | 114.47987 | 8299 ft | 269 kts | 276° |
| 2026-04-30 08:35 | 22.03060 | 114.45995 | 8164 ft | 268 kts | 276° |
| 2026-04-30 08:35 | 22.03299 | 114.43996 | 8030 ft | 268 kts | 276° |
| 2026-04-30 08:36 | 22.03532 | 114.42007 | 7899 ft | 268 kts | 276° |
| 2026-04-30 08:36 | 22.03762 | 114.40015 | 7766 ft | 268 kts | 276° |
| 2026-04-30 08:36 | 22.03988 | 114.38029 | 7637 ft | 267 kts | 276° |
| 2026-04-30 08:36 | 22.04214 | 114.36035 | 7501 ft | 267 kts | 276° |
| 2026-04-30 08:37 | 22.04436 | 114.34079 | 7353 ft | 267 kts | 276° |
| 2026-04-30 08:37 | 22.04660 | 114.32093 | 7237 ft | 266 kts | 276° |
| 2026-04-30 08:37 | 22.04883 | 114.30114 | 7100 ft | 266 kts | 276° |
| 2026-04-30 08:37 | 22.05110 | 114.28131 | 6972 ft | 266 kts | 276° |
| 2026-04-30 08:38 | 22.05332 | 114.26156 | 6841 ft | 265 kts | 276° |
| 2026-04-30 08:38 | 22.05551 | 114.24185 | 6707 ft | 265 kts | 276° |
| 2026-04-30 08:38 | 22.05771 | 114.22213 | 6580 ft | 265 kts | 276° |
| 2026-04-30 08:38 | 22.05991 | 114.20242 | 6447 ft | 264 kts | 276° |
| 2026-04-30 08:39 | 22.06209 | 114.18281 | 6313 ft | 263 kts | 276° |
| 2026-04-30 08:39 | 22.06428 | 114.16321 | 6177 ft | 263 kts | 276° |
| 2026-04-30 08:39 | 22.06645 | 114.14369 | 6044 ft | 263 kts | 276° |
| 2026-04-30 08:39 | 22.06863 | 114.12412 | 5912 ft | 262 kts | 276° |
| 2026-04-30 08:40 | 22.07080 | 114.10462 | 5799 ft | 262 kts | 277° |
| 2026-04-30 08:40 | 22.07297 | 114.08511 | 5643 ft | 262 kts | 277° |
| 2026-04-30 08:40 | 22.07513 | 114.06561 | 5533 ft | 262 kts | 277° |
| 2026-04-30 08:40 | 22.07729 | 114.04613 | 5395 ft | 261 kts | 277° |
| 2026-04-30 08:41 | 22.07945 | 114.02666 | 5269 ft | 262 kts | 277° |
| 2026-04-30 08:41 | 22.08160 | 114.00722 | 5135 ft | 261 kts | 277° |
| 2026-04-30 08:41 | 22.08376 | 113.98774 | 5004 ft | 261 kts | 277° |
| 2026-04-30 08:41 | 22.08592 | 113.96831 | 4876 ft | 261 kts | 277° |
| 2026-04-30 08:42 | 22.08808 | 113.94887 | 4755 ft | 260 kts | 277° |
| 2026-04-30 08:42 | 22.09020 | 113.92976 | 4610 ft | 261 kts | 277° |
| 2026-04-30 08:42 | 22.09235 | 113.91033 | 4494 ft | 261 kts | 277° |
| 2026-04-30 08:42 | 22.09449 | 113.89087 | 4353 ft | 262 kts | 277° |
| 2026-04-30 08:43 | 22.09663 | 113.87138 | 4239 ft | 261 kts | 278° |
| 2026-04-30 08:43 | 22.09873 | 113.85225 | 4097 ft | 253 kts | 278° |
| 2026-04-30 08:43 | 22.10079 | 113.83343 | 3974 ft | 253 kts | 278° |
| 2026-04-30 08:43 | 22.10284 | 113.81475 | 3847 ft | 247 kts | 278° |
| 2026-04-30 08:44 | 22.10507 | 113.79681 | 3724 ft | 235 kts | 283° |
| 2026-04-30 08:44 | 22.11084 | 113.78067 | 3612 ft | 230 kts | 305° |
| 2026-04-30 08:44 | 22.11773 | 113.77210 | 3545 ft | 228 kts | 321° |
| 2026-04-30 08:44 | 22.13120 | 113.76318 | 3424 ft | 227 kts | 336° |
| 2026-04-30 08:45 | 22.14551 | 113.75607 | 3308 ft | 227 kts | 337° |
| 2026-04-30 08:45 | 22.15991 | 113.74910 | 3170 ft | 226 kts | 337° |
| 2026-04-30 08:45 | 22.17420 | 113.74211 | 3054 ft | 225 kts | 338° |
| 2026-04-30 08:45 | 22.18847 | 113.73507 | 2930 ft | 226 kts | 338° |
| 2026-04-30 08:46 | 22.20276 | 113.72797 | 2801 ft | 226 kts | 338° |
| 2026-04-30 08:46 | 22.21703 | 113.72089 | 2684 ft | 225 kts | 338° |
| 2026-04-30 08:46 | 22.23192 | 113.71673 | 2526 ft | 220 kts | 5° |
| 2026-04-30 08:46 | 22.24538 | 113.72238 | 2452 ft | 203 kts | 37° |
| 2026-04-30 08:47 | 22.25589 | 113.73192 | 2414 ft | 195 kts | 40° |
| 2026-04-30 08:47 | 22.26606 | 113.74170 | 2391 ft | 196 kts | 40° |
| 2026-04-30 08:47 | 22.27617 | 113.75157 | 2355 ft | 197 kts | 44° |
| 2026-04-30 08:47 | 22.28381 | 113.76365 | 2242 ft | 196 kts | 64° |
| 2026-04-30 08:48 | 22.28786 | 113.77729 | 2013 ft | 187 kts | 71° |
| 2026-04-30 08:48 | 22.29180 | 113.79018 | 1775 ft | 174 kts | 65° |
| 2026-04-30 08:48 | 22.29582 | 113.80202 | 1534 ft | 161 kts | 68° |
| 2026-04-30 08:48 | 22.29929 | 113.81303 | 1325 ft | 150 kts | 68° |
| 2026-04-30 08:49 | 22.30257 | 113.82323 | 1153 ft | 141 kts | 68° |
| 2026-04-30 08:49 | 22.30581 | 113.83324 | 972 ft | 142 kts | 69° |
| 2026-04-30 08:49 | 22.30910 | 113.84346 | 787 ft | 146 kts | 68° |
| 2026-04-30 08:49 | 22.31243 | 113.85382 | 616 ft | 147 kts | 66° |
| 2026-04-30 08:50 | 22.31579 | 113.86421 | 392 ft | 145 kts | 68° |
| 2026-04-30 08:50 | 22.31904 | 113.87476 | 239 ft | 152 kts | 66° |
| 2026-04-30 08:50 | 22.32256 | 113.88549 | 44 ft | 149 kts | 69° |
| 2026-04-30 08:50 | 22.32568 | 113.89492 | 38 ft | 112 kts | 69° |
| 2026-04-30 08:51 | 22.32767 | 113.90135 | 39 ft | 68 kts | 71° |
| 2026-04-30 08:51 | 22.32894 | 113.90519 | 39 ft | 50 kts | 70° |
| 2026-04-30 08:51 | 22.32928 | 113.90842 | 39 ft | 41 kts | 99° |
| 2026-04-30 08:51 | 22.32915 | 113.91130 | 39 ft | 39 kts | 70° |
| 2026-04-30 08:52 | 22.33002 | 113.91414 | 39 ft | 39 kts | 71° |
| 2026-04-30 08:52 | 22.33087 | 113.91683 | 39 ft | 35 kts | 71° |
| 2026-04-30 08:52 | 22.33163 | 113.91922 | 39 ft | 29 kts | 71° |
| 2026-04-30 08:52 | 22.33132 | 113.92038 | 39 ft | 17 kts | 150° |
| 2026-04-30 08:53 | 22.33005 | 113.92087 | 39 ft | 21 kts | 162° |
| 2026-04-30 08:53 | 22.32857 | 113.92145 | 39 ft | 25 kts | 158° |
| 2026-04-30 08:53 | 22.32691 | 113.92211 | 38 ft | 26 kts | 163° |
| 2026-04-30 08:53 | 22.32508 | 113.92277 | 38 ft | 29 kts | 161° |
| 2026-04-30 08:54 | 22.32317 | 113.92349 | 38 ft | 30 kts | 160° |
| 2026-04-30 08:54 | 22.32152 | 113.92431 | 38 ft | 16 kts | 119° |
| 2026-04-30 08:54 | 22.32159 | 113.92528 | 38 ft | 16 kts | 76° |
| 2026-04-30 08:54 | 22.32187 | 113.92657 | 38 ft | 18 kts | 104° |
| 2026-04-30 08:55 | 22.32087 | 113.92729 | 40 ft | 18 kts | 161° |
| 2026-04-30 08:55 | 22.31959 | 113.92773 | 40 ft | 21 kts | 162° |
| 2026-04-30 08:55 | 22.31806 | 113.92810 | 38 ft | 23 kts | 201° |
| 2026-04-30 08:55 | 22.31736 | 113.92665 | 38 ft | 24 kts | 252° |
| 2026-04-30 08:56 | 22.31676 | 113.92478 | 38 ft | 29 kts | 251° |
| 2026-04-30 08:56 | 22.31606 | 113.92261 | 38 ft | 33 kts | 250° |
| 2026-04-30 08:56 | 22.31500 | 113.92079 | 38 ft | 27 kts | 181° |
| 2026-04-30 08:56 | 22.31372 | 113.92223 | 38 ft | 29 kts | 115° |
| 2026-04-30 08:57 | 22.31312 | 113.92358 | 37 ft | 6 kts | 115° |
| 2026-04-30 08:57 | 22.31309 | 113.92375 | 38 ft | 3 kts | 86° |
| 2026-04-30 08:57 | 22.31337 | 113.92391 | 38 ft | 5 kts | 26° |
| 2026-04-30 08:57 | 22.31352 | 113.92399 | 38 ft | 0 kts | 26° |
| 2026-04-30 08:58 | 22.31373 | 113.92410 | 38 ft | 0 kts | 26° |
| 2026-04-30 08:58 | 22.31379 | 113.92414 | 38 ft | 3 kts | 26° |
| 2026-04-30 08:58 | 22.31380 | 113.92414 | 38 ft | 0 kts | 26° |